sensor_id;sensor_type;location;lat;lon;timestamp;P1;durP1;ratioP1;P2;durP2;ratioP2
34317;SDS011;20582;52.196;20.952;2023-04-16T00:00:09;11.52;;;5.05;;
34317;SDS011;20582;52.196;20.952;2023-04-16T00:02:35;9.30;;;5.90;;
34317;SDS011;20582;52.196;20.952;2023-04-16T00:05:01;10.30;;;5.68;;
34317;SDS011;20582;52.196;20.952;2023-04-16T00:07:28;11.25;;;5.65;;
34317;SDS011;20582;52.196;20.952;2023-04-16T00:09:54;9.85;;;5.47;;
34317;SDS011;20582;52.196;20.952;2023-04-16T00:12:20;9.05;;;5.78;;
34317;SDS011;20582;52.196;20.952;2023-04-16T00:14:47;11.50;;;6.30;;
34317;SDS011;20582;52.196;20.952;2023-04-16T00:17:13;10.88;;;6.38;;
34317;SDS011;20582;52.196;20.952;2023-04-16T00:19:39;11.52;;;6.13;;
34317;SDS011;20582;52.196;20.952;2023-04-16T00:22:05;10.73;;;6.03;;
34317;SDS011;20582;52.196;20.952;2023-04-16T00:24:31;12.23;;;6.32;;
34317;SDS011;20582;52.196;20.952;2023-04-16T00:26:57;11.82;;;6.28;;
34317;SDS011;20582;52.196;20.952;2023-04-16T00:29:23;10.02;;;5.93;;
34317;SDS011;20582;52.196;20.952;2023-04-16T00:31:51;12.32;;;7.07;;
34317;SDS011;20582;52.196;20.952;2023-04-16T00:34:17;11.50;;;6.88;;
34317;SDS011;20582;52.196;20.952;2023-04-16T00:36:43;11.50;;;6.80;;
34317;SDS011;20582;52.196;20.952;2023-04-16T00:39:09;9.32;;;6.20;;
34317;SDS011;20582;52.196;20.952;2023-04-16T00:41:36;12.20;;;6.68;;
34317;SDS011;20582;52.196;20.952;2023-04-16T00:44:02;11.75;;;7.07;;
34317;SDS011;20582;52.196;20.952;2023-04-16T00:46:28;10.95;;;6.05;;
34317;SDS011;20582;52.196;20.952;2023-04-16T00:48:54;12.57;;;6.43;;
34317;SDS011;20582;52.196;20.952;2023-04-16T00:51:21;10.85;;;6.30;;
34317;SDS011;20582;52.196;20.952;2023-04-16T00:53:47;12.98;;;6.80;;
34317;SDS011;20582;52.196;20.952;2023-04-16T00:56:13;11.73;;;6.70;;
34317;SDS011;20582;52.196;20.952;2023-04-16T00:58:39;12.85;;;6.78;;
34317;SDS011;20582;52.196;20.952;2023-04-16T01:01:05;11.75;;;7.28;;
34317;SDS011;20582;52.196;20.952;2023-04-16T01:04:04;11.43;;;7.10;;
34317;SDS011;20582;52.196;20.952;2023-04-16T01:06:23;12.30;;;7.57;;
34317;SDS011;20582;52.196;20.952;2023-04-16T01:08:50;11.15;;;7.20;;
34317;SDS011;20582;52.196;20.952;2023-04-16T01:11:15;12.68;;;6.88;;
34317;SDS011;20582;52.196;20.952;2023-04-16T01:13:42;12.00;;;7.15;;
34317;SDS011;20582;52.196;20.952;2023-04-16T01:16:08;12.00;;;6.97;;
34317;SDS011;20582;52.196;20.952;2023-04-16T01:18:34;12.75;;;7.57;;
34317;SDS011;20582;52.196;20.952;2023-04-16T01:21:00;15.25;;;7.43;;
34317;SDS011;20582;52.196;20.952;2023-04-16T01:23:27;11.30;;;7.63;;
34317;SDS011;20582;52.196;20.952;2023-04-16T01:25:53;11.50;;;6.97;;
34317;SDS011;20582;52.196;20.952;2023-04-16T01:28:19;15.27;;;8.00;;
34317;SDS011;20582;52.196;20.952;2023-04-16T01:30:45;13.52;;;8.88;;
34317;SDS011;20582;52.196;20.952;2023-04-16T01:33:12;11.55;;;7.78;;
34317;SDS011;20582;52.196;20.952;2023-04-16T01:35:38;12.90;;;7.82;;
34317;SDS011;20582;52.196;20.952;2023-04-16T01:38:07;14.75;;;8.35;;
34317;SDS011;20582;52.196;20.952;2023-04-16T01:40:34;11.75;;;7.82;;
34317;SDS011;20582;52.196;20.952;2023-04-16T01:43:00;13.70;;;8.13;;
34317;SDS011;20582;52.196;20.952;2023-04-16T01:45:26;12.55;;;8.77;;
34317;SDS011;20582;52.196;20.952;2023-04-16T01:47:52;16.35;;;9.30;;
34317;SDS011;20582;52.196;20.952;2023-04-16T01:50:18;13.38;;;9.23;;
34317;SDS011;20582;52.196;20.952;2023-04-16T01:52:45;12.55;;;8.52;;
34317;SDS011;20582;52.196;20.952;2023-04-16T01:55:11;13.07;;;9.15;;
34317;SDS011;20582;52.196;20.952;2023-04-16T01:57:37;13.63;;;9.07;;
34317;SDS011;20582;52.196;20.952;2023-04-16T02:00:03;13.43;;;8.98;;
34317;SDS011;20582;52.196;20.952;2023-04-16T02:02:29;15.45;;;9.18;;
34317;SDS011;20582;52.196;20.952;2023-04-16T02:04:55;17.05;;;10.30;;
34317;SDS011;20582;52.196;20.952;2023-04-16T02:07:22;13.05;;;8.80;;
34317;SDS011;20582;52.196;20.952;2023-04-16T02:09:48;14.05;;;9.40;;
34317;SDS011;20582;52.196;20.952;2023-04-16T02:12:14;13.35;;;9.23;;
34317;SDS011;20582;52.196;20.952;2023-04-16T02:14:41;14.70;;;10.02;;
34317;SDS011;20582;52.196;20.952;2023-04-16T02:17:07;16.42;;;10.60;;
34317;SDS011;20582;52.196;20.952;2023-04-16T02:19:33;15.43;;;11.23;;
34317;SDS011;20582;52.196;20.952;2023-04-16T02:21:59;15.27;;;10.70;;
34317;SDS011;20582;52.196;20.952;2023-04-16T02:24:28;16.45;;;10.63;;
34317;SDS011;20582;52.196;20.952;2023-04-16T02:26:54;15.02;;;10.05;;
34317;SDS011;20582;52.196;20.952;2023-04-16T02:29:20;14.25;;;9.63;;
34317;SDS011;20582;52.196;20.952;2023-04-16T02:31:47;14.80;;;9.90;;
34317;SDS011;20582;52.196;20.952;2023-04-16T02:34:13;12.30;;;9.13;;
34317;SDS011;20582;52.196;20.952;2023-04-16T02:36:39;12.23;;;8.52;;
34317;SDS011;20582;52.196;20.952;2023-04-16T02:39:05;13.07;;;8.63;;
34317;SDS011;20582;52.196;20.952;2023-04-16T02:41:31;12.80;;;7.97;;
34317;SDS011;20582;52.196;20.952;2023-04-16T02:43:58;13.73;;;7.95;;
34317;SDS011;20582;52.196;20.952;2023-04-16T02:46:24;12.82;;;7.57;;
34317;SDS011;20582;52.196;20.952;2023-04-16T02:48:50;12.65;;;7.88;;
34317;SDS011;20582;52.196;20.952;2023-04-16T02:51:16;12.65;;;7.53;;
34317;SDS011;20582;52.196;20.952;2023-04-16T02:53:42;11.73;;;7.63;;
34317;SDS011;20582;52.196;20.952;2023-04-16T02:56:10;11.77;;;7.22;;
34317;SDS011;20582;52.196;20.952;2023-04-16T02:58:36;13.20;;;7.60;;
34317;SDS011;20582;52.196;20.952;2023-04-16T03:01:02;12.35;;;7.43;;
34317;SDS011;20582;52.196;20.952;2023-04-16T03:03:28;12.52;;;7.95;;
34317;SDS011;20582;52.196;20.952;2023-04-16T03:05:54;12.48;;;7.53;;
34317;SDS011;20582;52.196;20.952;2023-04-16T03:08:20;13.05;;;7.53;;
34317;SDS011;20582;52.196;20.952;2023-04-16T03:10:46;13.77;;;7.78;;
34317;SDS011;20582;52.196;20.952;2023-04-16T03:13:12;16.40;;;8.23;;
34317;SDS011;20582;52.196;20.952;2023-04-16T03:15:38;14.07;;;8.43;;
34317;SDS011;20582;52.196;20.952;2023-04-16T03:18:04;13.68;;;8.82;;
34317;SDS011;20582;52.196;20.952;2023-04-16T03:20:30;14.82;;;8.30;;
34317;SDS011;20582;52.196;20.952;2023-04-16T03:22:56;14.18;;;9.18;;
34317;SDS011;20582;52.196;20.952;2023-04-16T03:25:22;16.58;;;9.50;;
34317;SDS011;20582;52.196;20.952;2023-04-16T03:27:48;14.48;;;9.13;;
34317;SDS011;20582;52.196;20.952;2023-04-16T03:30:14;14.80;;;9.68;;
34317;SDS011;20582;52.196;20.952;2023-04-16T03:32:40;15.48;;;10.10;;
34317;SDS011;20582;52.196;20.952;2023-04-16T03:35:07;14.05;;;9.50;;
34317;SDS011;20582;52.196;20.952;2023-04-16T03:37:33;15.57;;;9.68;;
34317;SDS011;20582;52.196;20.952;2023-04-16T03:39:59;14.50;;;9.43;;
34317;SDS011;20582;52.196;20.952;2023-04-16T03:42:25;15.07;;;9.13;;
34317;SDS011;20582;52.196;20.952;2023-04-16T03:44:51;15.88;;;10.07;;
34317;SDS011;20582;52.196;20.952;2023-04-16T03:47:18;17.25;;;10.00;;
34317;SDS011;20582;52.196;20.952;2023-04-16T03:49:44;17.67;;;9.93;;
34317;SDS011;20582;52.196;20.952;2023-04-16T03:52:10;15.75;;;10.50;;
34317;SDS011;20582;52.196;20.952;2023-04-16T03:54:36;15.68;;;9.82;;
34317;SDS011;20582;52.196;20.952;2023-04-16T03:57:02;16.30;;;10.35;;
34317;SDS011;20582;52.196;20.952;2023-04-16T03:59:28;15.55;;;9.90;;
34317;SDS011;20582;52.196;20.952;2023-04-16T04:01:54;14.95;;;9.85;;
34317;SDS011;20582;52.196;20.952;2023-04-16T04:04:20;15.65;;;9.52;;
34317;SDS011;20582;52.196;20.952;2023-04-16T04:06:46;19.33;;;11.30;;
34317;SDS011;20582;52.196;20.952;2023-04-16T04:09:12;14.45;;;9.77;;
34317;SDS011;20582;52.196;20.952;2023-04-16T04:11:40;17.25;;;10.38;;
34317;SDS011;20582;52.196;20.952;2023-04-16T04:14:06;16.58;;;10.23;;
34317;SDS011;20582;52.196;20.952;2023-04-16T04:16:32;19.88;;;10.60;;
34317;SDS011;20582;52.196;20.952;2023-04-16T04:18:58;18.15;;;11.32;;
34317;SDS011;20582;52.196;20.952;2023-04-16T04:21:24;18.23;;;10.57;;
34317;SDS011;20582;52.196;20.952;2023-04-16T04:23:51;15.98;;;10.63;;
34317;SDS011;20582;52.196;20.952;2023-04-16T04:26:17;18.05;;;10.95;;
34317;SDS011;20582;52.196;20.952;2023-04-16T04:28:42;18.40;;;11.20;;
34317;SDS011;20582;52.196;20.952;2023-04-16T04:31:08;16.80;;;10.93;;
34317;SDS011;20582;52.196;20.952;2023-04-16T04:33:35;17.95;;;10.15;;
34317;SDS011;20582;52.196;20.952;2023-04-16T04:36:01;20.75;;;11.75;;
34317;SDS011;20582;52.196;20.952;2023-04-16T04:38:27;16.33;;;10.80;;
34317;SDS011;20582;52.196;20.952;2023-04-16T04:40:54;17.60;;;10.77;;
34317;SDS011;20582;52.196;20.952;2023-04-16T04:43:20;17.75;;;11.50;;
34317;SDS011;20582;52.196;20.952;2023-04-16T04:45:46;15.50;;;10.70;;
34317;SDS011;20582;52.196;20.952;2023-04-16T04:48:13;17.85;;;11.32;;
34317;SDS011;20582;52.196;20.952;2023-04-16T04:50:39;16.05;;;10.98;;
34317;SDS011;20582;52.196;20.952;2023-04-16T04:53:05;18.15;;;11.23;;
34317;SDS011;20582;52.196;20.952;2023-04-16T04:55:37;15.85;;;10.43;;
34317;SDS011;20582;52.196;20.952;2023-04-16T04:58:03;17.40;;;11.55;;
34317;SDS011;20582;52.196;20.952;2023-04-16T05:00:30;14.00;;;9.98;;
34317;SDS011;20582;52.196;20.952;2023-04-16T05:02:56;16.52;;;10.40;;
34317;SDS011;20582;52.196;20.952;2023-04-16T05:05:22;15.95;;;9.90;;
34317;SDS011;20582;52.196;20.952;2023-04-16T05:07:48;15.57;;;10.10;;
34317;SDS011;20582;52.196;20.952;2023-04-16T05:10:14;15.38;;;10.18;;
34317;SDS011;20582;52.196;20.952;2023-04-16T05:12:40;15.35;;;10.57;;
34317;SDS011;20582;52.196;20.952;2023-04-16T05:15:06;15.73;;;10.00;;
34317;SDS011;20582;52.196;20.952;2023-04-16T05:17:32;17.40;;;10.88;;
34317;SDS011;20582;52.196;20.952;2023-04-16T05:19:59;15.82;;;10.75;;
34317;SDS011;20582;52.196;20.952;2023-04-16T05:22:25;14.65;;;10.10;;
34317;SDS011;20582;52.196;20.952;2023-04-16T05:24:51;16.40;;;10.30;;
34317;SDS011;20582;52.196;20.952;2023-04-16T05:27:17;15.57;;;10.15;;
34317;SDS011;20582;52.196;20.952;2023-04-16T05:29:42;16.13;;;9.93;;
34317;SDS011;20582;52.196;20.952;2023-04-16T05:32:08;15.77;;;10.35;;
34317;SDS011;20582;52.196;20.952;2023-04-16T05:34:34;15.35;;;10.45;;
34317;SDS011;20582;52.196;20.952;2023-04-16T05:37:00;15.27;;;9.85;;
34317;SDS011;20582;52.196;20.952;2023-04-16T05:39:26;15.60;;;10.15;;
34317;SDS011;20582;52.196;20.952;2023-04-16T05:41:52;14.68;;;10.38;;
34317;SDS011;20582;52.196;20.952;2023-04-16T05:44:18;15.02;;;10.35;;
34317;SDS011;20582;52.196;20.952;2023-04-16T05:46:44;15.93;;;10.02;;
34317;SDS011;20582;52.196;20.952;2023-04-16T05:49:10;16.45;;;10.25;;
34317;SDS011;20582;52.196;20.952;2023-04-16T05:51:36;16.92;;;10.85;;
34317;SDS011;20582;52.196;20.952;2023-04-16T05:54:02;16.70;;;10.55;;
34317;SDS011;20582;52.196;20.952;2023-04-16T05:56:28;16.10;;;10.57;;
34317;SDS011;20582;52.196;20.952;2023-04-16T05:58:54;15.68;;;9.82;;
34317;SDS011;20582;52.196;20.952;2023-04-16T06:01:20;15.98;;;10.18;;
34317;SDS011;20582;52.196;20.952;2023-04-16T06:03:46;14.95;;;10.02;;
34317;SDS011;20582;52.196;20.952;2023-04-16T06:06:12;15.98;;;10.75;;
34317;SDS011;20582;52.196;20.952;2023-04-16T06:08:38;14.52;;;9.98;;
34317;SDS011;20582;52.196;20.952;2023-04-16T06:11:04;15.68;;;10.05;;
34317;SDS011;20582;52.196;20.952;2023-04-16T06:13:30;13.38;;;9.77;;
34317;SDS011;20582;52.196;20.952;2023-04-16T06:15:56;13.43;;;9.30;;
34317;SDS011;20582;52.196;20.952;2023-04-16T06:18:22;15.38;;;10.07;;
34317;SDS011;20582;52.196;20.952;2023-04-16T06:20:48;14.10;;;9.60;;
34317;SDS011;20582;52.196;20.952;2023-04-16T06:23:14;13.98;;;9.63;;
34317;SDS011;20582;52.196;20.952;2023-04-16T06:25:40;12.88;;;8.73;;
34317;SDS011;20582;52.196;20.952;2023-04-16T06:28:06;14.50;;;9.30;;
34317;SDS011;20582;52.196;20.952;2023-04-16T06:30:32;14.57;;;9.25;;
34317;SDS011;20582;52.196;20.952;2023-04-16T06:32:58;13.93;;;9.50;;
34317;SDS011;20582;52.196;20.952;2023-04-16T06:35:24;13.50;;;9.30;;
34317;SDS011;20582;52.196;20.952;2023-04-16T06:37:50;15.93;;;10.40;;
34317;SDS011;20582;52.196;20.952;2023-04-16T06:40:16;13.35;;;9.20;;
34317;SDS011;20582;52.196;20.952;2023-04-16T06:42:42;15.15;;;9.23;;
34317;SDS011;20582;52.196;20.952;2023-04-16T06:45:08;12.93;;;9.30;;
34317;SDS011;20582;52.196;20.952;2023-04-16T06:47:34;14.27;;;9.35;;
34317;SDS011;20582;52.196;20.952;2023-04-16T06:50:00;12.80;;;8.75;;
34317;SDS011;20582;52.196;20.952;2023-04-16T06:52:26;13.20;;;8.93;;
34317;SDS011;20582;52.196;20.952;2023-04-16T06:54:52;12.88;;;8.50;;
34317;SDS011;20582;52.196;20.952;2023-04-16T06:57:18;12.73;;;8.65;;
34317;SDS011;20582;52.196;20.952;2023-04-16T06:59:44;16.15;;;9.63;;
34317;SDS011;20582;52.196;20.952;2023-04-16T07:02:10;13.93;;;10.10;;
34317;SDS011;20582;52.196;20.952;2023-04-16T07:04:36;14.32;;;9.43;;
34317;SDS011;20582;52.196;20.952;2023-04-16T07:07:02;15.00;;;10.40;;
34317;SDS011;20582;52.196;20.952;2023-04-16T07:09:28;16.20;;;11.13;;
34317;SDS011;20582;52.196;20.952;2023-04-16T07:11:54;14.93;;;11.32;;
34317;SDS011;20582;52.196;20.952;2023-04-16T07:14:20;15.32;;;10.40;;
34317;SDS011;20582;52.196;20.952;2023-04-16T07:16:46;15.02;;;10.98;;
34317;SDS011;20582;52.196;20.952;2023-04-16T07:19:12;16.63;;;11.40;;
34317;SDS011;20582;52.196;20.952;2023-04-16T07:21:38;13.50;;;9.95;;
34317;SDS011;20582;52.196;20.952;2023-04-16T07:24:05;14.40;;;10.27;;
34317;SDS011;20582;52.196;20.952;2023-04-16T07:26:31;15.25;;;10.52;;
34317;SDS011;20582;52.196;20.952;2023-04-16T07:28:57;15.52;;;11.10;;
34317;SDS011;20582;52.196;20.952;2023-04-16T07:31:23;15.05;;;11.10;;
34317;SDS011;20582;52.196;20.952;2023-04-16T07:33:49;15.45;;;10.63;;
34317;SDS011;20582;52.196;20.952;2023-04-16T07:36:15;16.42;;;11.43;;
34317;SDS011;20582;52.196;20.952;2023-04-16T07:38:41;14.73;;;10.98;;
34317;SDS011;20582;52.196;20.952;2023-04-16T07:41:07;15.70;;;10.63;;
34317;SDS011;20582;52.196;20.952;2023-04-16T07:43:33;15.00;;;10.05;;
34317;SDS011;20582;52.196;20.952;2023-04-16T07:45:59;13.63;;;9.85;;
34317;SDS011;20582;52.196;20.952;2023-04-16T07:48:25;13.48;;;9.32;;
34317;SDS011;20582;52.196;20.952;2023-04-16T07:50:51;13.32;;;9.15;;
34317;SDS011;20582;52.196;20.952;2023-04-16T07:53:17;12.95;;;8.88;;
34317;SDS011;20582;52.196;20.952;2023-04-16T07:55:43;15.27;;;8.82;;
34317;SDS011;20582;52.196;20.952;2023-04-16T07:58:09;12.43;;;8.63;;
34317;SDS011;20582;52.196;20.952;2023-04-16T08:00:35;13.07;;;8.57;;
34317;SDS011;20582;52.196;20.952;2023-04-16T08:03:01;13.40;;;8.68;;
34317;SDS011;20582;52.196;20.952;2023-04-16T08:05:28;12.48;;;8.95;;
34317;SDS011;20582;52.196;20.952;2023-04-16T08:07:54;14.68;;;8.65;;
34317;SDS011;20582;52.196;20.952;2023-04-16T08:10:20;14.00;;;9.07;;
34317;SDS011;20582;52.196;20.952;2023-04-16T08:12:46;12.57;;;8.57;;
34317;SDS011;20582;52.196;20.952;2023-04-16T08:15:12;14.27;;;9.40;;
34317;SDS011;20582;52.196;20.952;2023-04-16T08:17:38;12.68;;;9.18;;
34317;SDS011;20582;52.196;20.952;2023-04-16T08:20:04;14.33;;;9.63;;
34317;SDS011;20582;52.196;20.952;2023-04-16T08:22:31;13.52;;;8.93;;
34317;SDS011;20582;52.196;20.952;2023-04-16T08:24:57;14.18;;;9.52;;
34317;SDS011;20582;52.196;20.952;2023-04-16T08:27:23;18.70;;;9.90;;
34317;SDS011;20582;52.196;20.952;2023-04-16T08:29:49;13.40;;;8.82;;
34317;SDS011;20582;52.196;20.952;2023-04-16T08:32:15;13.07;;;8.25;;
34317;SDS011;20582;52.196;20.952;2023-04-16T08:34:41;11.75;;;8.70;;
34317;SDS011;20582;52.196;20.952;2023-04-16T08:37:07;12.02;;;8.55;;
34317;SDS011;20582;52.196;20.952;2023-04-16T08:39:33;12.45;;;8.98;;
34317;SDS011;20582;52.196;20.952;2023-04-16T08:42:00;11.70;;;7.75;;
34317;SDS011;20582;52.196;20.952;2023-04-16T08:44:30;11.38;;;8.35;;
34317;SDS011;20582;52.196;20.952;2023-04-16T08:46:56;11.88;;;8.45;;
34317;SDS011;20582;52.196;20.952;2023-04-16T08:49:23;12.38;;;8.60;;
34317;SDS011;20582;52.196;20.952;2023-04-16T08:51:50;13.63;;;8.35;;
34317;SDS011;20582;52.196;20.952;2023-04-16T08:54:22;12.35;;;8.27;;
34317;SDS011;20582;52.196;20.952;2023-04-16T08:56:51;13.45;;;8.38;;
34317;SDS011;20582;52.196;20.952;2023-04-16T08:59:17;13.00;;;8.48;;
34317;SDS011;20582;52.196;20.952;2023-04-16T09:01:43;10.20;;;7.63;;
34317;SDS011;20582;52.196;20.952;2023-04-16T09:04:10;10.88;;;8.07;;
34317;SDS011;20582;52.196;20.952;2023-04-16T09:06:37;11.90;;;7.72;;
34317;SDS011;20582;52.196;20.952;2023-04-16T09:09:05;9.93;;;7.60;;
34317;SDS011;20582;52.196;20.952;2023-04-16T09:11:31;12.43;;;8.07;;
34317;SDS011;20582;52.196;20.952;2023-04-16T09:13:57;10.57;;;7.40;;
34317;SDS011;20582;52.196;20.952;2023-04-16T09:16:25;10.80;;;7.60;;
34317;SDS011;20582;52.196;20.952;2023-04-16T09:18:51;11.05;;;7.65;;
34317;SDS011;20582;52.196;20.952;2023-04-16T09:21:17;11.65;;;7.85;;
34317;SDS011;20582;52.196;20.952;2023-04-16T09:23:44;10.80;;;7.80;;
34317;SDS011;20582;52.196;20.952;2023-04-16T09:26:10;10.52;;;7.53;;
34317;SDS011;20582;52.196;20.952;2023-04-16T09:28:43;12.10;;;7.75;;
34317;SDS011;20582;52.196;20.952;2023-04-16T09:31:16;10.45;;;7.30;;
34317;SDS011;20582;52.196;20.952;2023-04-16T09:33:43;13.07;;;7.20;;
34317;SDS011;20582;52.196;20.952;2023-04-16T09:36:09;9.90;;;7.18;;
34317;SDS011;20582;52.196;20.952;2023-04-16T09:38:47;10.77;;;7.40;;
34317;SDS011;20582;52.196;20.952;2023-04-16T09:41:14;12.38;;;7.13;;
34317;SDS011;20582;52.196;20.952;2023-04-16T09:43:41;9.73;;;6.82;;
34317;SDS011;20582;52.196;20.952;2023-04-16T09:46:13;11.05;;;7.38;;
34317;SDS011;20582;52.196;20.952;2023-04-16T09:48:39;9.80;;;7.32;;
34317;SDS011;20582;52.196;20.952;2023-04-16T09:51:05;9.98;;;6.93;;
34317;SDS011;20582;52.196;20.952;2023-04-16T09:53:31;11.73;;;7.72;;
34317;SDS011;20582;52.196;20.952;2023-04-16T09:56:01;12.43;;;7.82;;
34317;SDS011;20582;52.196;20.952;2023-04-16T09:58:28;13.37;;;7.87;;
34317;SDS011;20582;52.196;20.952;2023-04-16T10:00:55;9.57;;;7.05;;
34317;SDS011;20582;52.196;20.952;2023-04-16T10:03:31;9.68;;;7.13;;
34317;SDS011;20582;52.196;20.952;2023-04-16T10:08:33;11.60;;;7.80;;
34317;SDS011;20582;52.196;20.952;2023-04-16T10:10:59;10.38;;;7.30;;
34317;SDS011;20582;52.196;20.952;2023-04-16T10:13:25;12.82;;;7.60;;
34317;SDS011;20582;52.196;20.952;2023-04-16T10:15:55;12.82;;;8.30;;
34317;SDS011;20582;52.196;20.952;2023-04-16T10:18:21;10.43;;;7.50;;
34317;SDS011;20582;52.196;20.952;2023-04-16T10:20:48;11.57;;;7.88;;
34317;SDS011;20582;52.196;20.952;2023-04-16T10:23:14;13.20;;;8.55;;
34317;SDS011;20582;52.196;20.952;2023-04-16T10:25:41;13.43;;;8.75;;
34317;SDS011;20582;52.196;20.952;2023-04-16T10:28:08;11.60;;;8.40;;
34317;SDS011;20582;52.196;20.952;2023-04-16T10:30:35;11.65;;;7.20;;
34317;SDS011;20582;52.196;20.952;2023-04-16T10:33:02;11.80;;;8.00;;
34317;SDS011;20582;52.196;20.952;2023-04-16T10:35:28;12.52;;;7.90;;
34317;SDS011;20582;52.196;20.952;2023-04-16T10:37:55;12.38;;;8.32;;
34317;SDS011;20582;52.196;20.952;2023-04-16T10:40:22;11.23;;;8.00;;
34317;SDS011;20582;52.196;20.952;2023-04-16T10:42:52;12.02;;;8.57;;
34317;SDS011;20582;52.196;20.952;2023-04-16T10:45:18;12.65;;;8.27;;
34317;SDS011;20582;52.196;20.952;2023-04-16T10:47:45;11.55;;;8.25;;
34317;SDS011;20582;52.196;20.952;2023-04-16T10:50:14;11.75;;;8.45;;
34317;SDS011;20582;52.196;20.952;2023-04-16T10:52:41;12.55;;;8.90;;
34317;SDS011;20582;52.196;20.952;2023-04-16T10:55:07;12.15;;;8.35;;
34317;SDS011;20582;52.196;20.952;2023-04-16T10:57:33;12.05;;;8.25;;
34317;SDS011;20582;52.196;20.952;2023-04-16T10:59:59;11.68;;;7.72;;
34317;SDS011;20582;52.196;20.952;2023-04-16T11:02:27;10.95;;;8.15;;
34317;SDS011;20582;52.196;20.952;2023-04-16T11:04:53;10.82;;;7.63;;
34317;SDS011;20582;52.196;20.952;2023-04-16T11:07:32;11.23;;;7.80;;
34317;SDS011;20582;52.196;20.952;2023-04-16T11:09:59;11.25;;;8.02;;
34317;SDS011;20582;52.196;20.952;2023-04-16T11:17:51;12.07;;;8.40;;
34317;SDS011;20582;52.196;20.952;2023-04-16T11:20:17;11.07;;;8.73;;
34317;SDS011;20582;52.196;20.952;2023-04-16T11:22:43;12.60;;;8.52;;
34317;SDS011;20582;52.196;20.952;2023-04-16T11:25:10;12.10;;;8.82;;
34317;SDS011;20582;52.196;20.952;2023-04-16T11:27:36;12.27;;;8.52;;
34317;SDS011;20582;52.196;20.952;2023-04-16T11:30:02;12.07;;;8.13;;
34317;SDS011;20582;52.196;20.952;2023-04-16T11:32:33;11.15;;;7.85;;
34317;SDS011;20582;52.196;20.952;2023-04-16T11:35:00;12.40;;;8.80;;
34317;SDS011;20582;52.196;20.952;2023-04-16T11:37:32;12.07;;;8.27;;
34317;SDS011;20582;52.196;20.952;2023-04-16T11:39:58;11.38;;;8.00;;
34317;SDS011;20582;52.196;20.952;2023-04-16T11:42:25;12.40;;;8.35;;
34317;SDS011;20582;52.196;20.952;2023-04-16T11:44:55;12.13;;;8.80;;
34317;SDS011;20582;52.196;20.952;2023-04-16T11:47:22;12.00;;;8.38;;
34317;SDS011;20582;52.196;20.952;2023-04-16T11:49:49;12.38;;;8.27;;
34317;SDS011;20582;52.196;20.952;2023-04-16T11:52:23;11.00;;;7.80;;
34317;SDS011;20582;52.196;20.952;2023-04-16T11:54:51;10.52;;;7.75;;
34317;SDS011;20582;52.196;20.952;2023-04-16T11:57:26;11.65;;;7.55;;
34317;SDS011;20582;52.196;20.952;2023-04-16T11:59:52;11.10;;;7.55;;
34317;SDS011;20582;52.196;20.952;2023-04-16T12:02:37;12.25;;;7.63;;
34317;SDS011;20582;52.196;20.952;2023-04-16T12:05:04;9.77;;;7.80;;
34317;SDS011;20582;52.196;20.952;2023-04-16T12:07:31;9.63;;;6.50;;
34317;SDS011;20582;52.196;20.952;2023-04-16T12:10:04;8.45;;;6.32;;
34317;SDS011;20582;52.196;20.952;2023-04-16T12:12:31;10.15;;;6.30;;
34317;SDS011;20582;52.196;20.952;2023-04-16T12:15:02;9.65;;;6.47;;
34317;SDS011;20582;52.196;20.952;2023-04-16T12:17:29;8.73;;;6.07;;
34317;SDS011;20582;52.196;20.952;2023-04-16T12:19:55;9.07;;;6.00;;
34317;SDS011;20582;52.196;20.952;2023-04-16T12:22:28;8.23;;;5.80;;
34317;SDS011;20582;52.196;20.952;2023-04-16T12:24:57;7.93;;;5.55;;
34317;SDS011;20582;52.196;20.952;2023-04-16T12:27:23;6.72;;;5.70;;
34317;SDS011;20582;52.196;20.952;2023-04-16T12:30:02;7.35;;;5.72;;
34317;SDS011;20582;52.196;20.952;2023-04-16T12:32:28;9.13;;;5.22;;
34317;SDS011;20582;52.196;20.952;2023-04-16T12:34:54;7.20;;;5.60;;
34317;SDS011;20582;52.196;20.952;2023-04-16T12:37:20;7.45;;;5.97;;
34317;SDS011;20582;52.196;20.952;2023-04-16T12:39:46;8.00;;;5.55;;
34317;SDS011;20582;52.196;20.952;2023-04-16T12:42:12;7.15;;;5.38;;
34317;SDS011;20582;52.196;20.952;2023-04-16T12:44:38;6.63;;;5.10;;
34317;SDS011;20582;52.196;20.952;2023-04-16T12:47:04;6.22;;;4.72;;
34317;SDS011;20582;52.196;20.952;2023-04-16T12:49:30;6.00;;;4.88;;
34317;SDS011;20582;52.196;20.952;2023-04-16T12:51:56;8.63;;;5.15;;
34317;SDS011;20582;52.196;20.952;2023-04-16T12:54:23;8.18;;;5.18;;
34317;SDS011;20582;52.196;20.952;2023-04-16T12:56:52;8.38;;;5.40;;
34317;SDS011;20582;52.196;20.952;2023-04-16T12:59:19;7.70;;;5.00;;
34317;SDS011;20582;52.196;20.952;2023-04-16T13:01:44;6.55;;;5.15;;
34317;SDS011;20582;52.196;20.952;2023-04-16T13:04:10;7.03;;;5.05;;
34317;SDS011;20582;52.196;20.952;2023-04-16T13:06:36;8.35;;;5.88;;
34317;SDS011;20582;52.196;20.952;2023-04-16T13:09:02;8.07;;;5.78;;
34317;SDS011;20582;52.196;20.952;2023-04-16T13:11:28;8.45;;;6.20;;
34317;SDS011;20582;52.196;20.952;2023-04-16T13:13:55;10.07;;;6.55;;
34317;SDS011;20582;52.196;20.952;2023-04-16T13:16:21;9.18;;;5.90;;
34317;SDS011;20582;52.196;20.952;2023-04-16T13:18:47;9.30;;;6.82;;
34317;SDS011;20582;52.196;20.952;2023-04-16T13:21:13;11.73;;;7.10;;
34317;SDS011;20582;52.196;20.952;2023-04-16T13:23:39;9.35;;;6.18;;
34317;SDS011;20582;52.196;20.952;2023-04-16T13:26:05;8.90;;;6.30;;
34317;SDS011;20582;52.196;20.952;2023-04-16T13:28:31;8.85;;;6.50;;
34317;SDS011;20582;52.196;20.952;2023-04-16T13:30:58;11.25;;;7.30;;
34317;SDS011;20582;52.196;20.952;2023-04-16T13:33:24;9.25;;;7.35;;
34317;SDS011;20582;52.196;20.952;2023-04-16T13:35:50;9.15;;;6.68;;
34317;SDS011;20582;52.196;20.952;2023-04-16T13:38:16;9.50;;;6.70;;
34317;SDS011;20582;52.196;20.952;2023-04-16T13:40:43;8.90;;;6.80;;
34317;SDS011;20582;52.196;20.952;2023-04-16T13:43:09;9.00;;;6.80;;
34317;SDS011;20582;52.196;20.952;2023-04-16T13:45:36;9.23;;;6.20;;
34317;SDS011;20582;52.196;20.952;2023-04-16T13:48:02;9.02;;;5.80;;
34317;SDS011;20582;52.196;20.952;2023-04-16T13:50:28;9.02;;;5.72;;
34317;SDS011;20582;52.196;20.952;2023-04-16T13:52:54;9.23;;;6.10;;
34317;SDS011;20582;52.196;20.952;2023-04-16T13:55:21;8.13;;;5.90;;
34317;SDS011;20582;52.196;20.952;2023-04-16T13:57:47;7.22;;;5.32;;
34317;SDS011;20582;52.196;20.952;2023-04-16T14:00:13;7.00;;;5.22;;
34317;SDS011;20582;52.196;20.952;2023-04-16T14:02:42;7.72;;;5.68;;
34317;SDS011;20582;52.196;20.952;2023-04-16T14:05:10;11.50;;;6.97;;
34317;SDS011;20582;52.196;20.952;2023-04-16T14:07:36;10.02;;;6.88;;
34317;SDS011;20582;52.196;20.952;2023-04-16T14:10:02;12.75;;;6.63;;
34317;SDS011;20582;52.196;20.952;2023-04-16T14:12:28;9.50;;;7.00;;
34317;SDS011;20582;52.196;20.952;2023-04-16T14:14:55;9.18;;;6.82;;
34317;SDS011;20582;52.196;20.952;2023-04-16T14:17:21;10.57;;;6.85;;
34317;SDS011;20582;52.196;20.952;2023-04-16T14:19:47;8.90;;;7.07;;
34317;SDS011;20582;52.196;20.952;2023-04-16T14:22:13;9.15;;;6.90;;
34317;SDS011;20582;52.196;20.952;2023-04-16T14:24:41;10.77;;;7.47;;